Time;durP1;ratioP1;P1;durP2;ratioP2;P2;SDS_P1;SDS_P2;PMS_P1;PMS_P2;Temp;Humidity;BMP_temperature;BMP_pressure;BME280_temperature;BME280_humidity;BME280_pressure;Samples;Min_cycle;Max_cycle;Signal;HPM_P1;HPM_P2
2022/05/12 00:00:09;;;;;;;9.68;1.40;;;;;;;13.13;97.46;101240.38;4989451;28;20054;-60
2022/05/12 00:02:39;;;;;;;6.43;1.30;;;;;;;13.09;97.93;101249.47;4993212;28;20057;-61
2022/05/12 00:05:08;;;;;;;7.57;1.50;;;;;;;12.96;97.52;101252.13;4989663;28;20046;-60
2022/05/12 00:07:37;;;;;;;9.20;1.80;;;;;;;13.00;99.67;101250.97;4992312;28;20030;-48
2022/05/12 00:10:08;;;;;;;4.43;1.10;;;;;;;12.89;98.09;101259.63;4993786;28;20069;-60
2022/05/12 00:12:36;;;;;;;2.90;1.05;;;;;;;12.71;99.13;101261.72;4989321;28;20387;-60
2022/05/12 00:15:08;;;;;;;9.27;1.80;;;;;;;12.67;99.54;101276.06;4987153;28;20719;-59
2022/05/12 00:17:37;;;;;;;5.70;1.35;;;;;;;12.72;99.97;101265.19;4989667;28;20228;-60
2022/05/12 00:20:08;;;;;;;7.15;1.40;;;;;;;12.79;99.55;101279.69;4988178;28;20070;-60
2022/05/12 00:22:36;;;;;;;12.10;1.70;;;;;;;12.61;98.93;101279.97;4989152;28;20053;-60
2022/05/12 00:25:05;;;;;;;6.82;1.40;;;;;;;12.52;99.41;101288.50;4985547;28;20085;-60
2022/05/12 00:27:34;;;;;;;6.15;1.40;;;;;;;12.46;99.24;101287.13;4987142;28;20561;-60
2022/05/12 00:30:04;;;;;;;6.10;1.80;;;;;;;12.52;99.10;101294.59;4988633;28;20058;-60
2022/05/12 00:32:33;;;;;;;8.95;1.55;;;;;;;12.50;99.79;101290.38;4989434;28;20193;-50
2022/05/12 00:35:01;;;;;;;5.07;1.25;;;;;;;12.57;99.30;101296.97;4988466;28;20173;-60
2022/05/12 00:37:30;;;;;;;6.72;1.40;;;;;;;12.54;99.56;101312.13;4988872;28;20051;-51
2022/05/12 00:39:58;;;;;;;8.95;1.30;;;;;;;12.47;99.57;101311.69;4988742;28;20052;-50
2022/05/12 00:42:26;;;;;;;6.65;1.30;;;;;;;12.44;99.81;101301.34;4991939;28;20046;-53
2022/05/12 00:44:54;;;;;;;7.53;1.20;;;;;;;12.49;99.72;101305.38;4988817;28;20446;-52
2022/05/12 00:47:23;;;;;;;10.68;1.88;;;;;;;12.45;99.55;101306.53;4991614;28;20058;-50
2022/05/12 00:49:52;;;;;;;6.82;1.40;;;;;;;12.47;99.60;101317.81;4988038;28;20046;-48
2022/05/12 00:52:26;;;;;;;7.00;1.38;;;;;;;12.40;100.00;101319.16;4989089;28;20050;-52
2022/05/12 00:54:59;;;;;;;7.35;1.25;;;;;;;12.32;100.00;101319.69;4993396;28;20588;-53
2022/05/12 00:57:29;;;;;;;7.10;1.50;;;;;;;12.30;100.00;101331.28;4991022;28;20046;-52
2022/05/12 00:59:58;;;;;;;6.72;1.30;;;;;;;12.21;100.00;101327.41;4988401;28;20536;-51
2022/05/12 01:02:29;;;;;;;6.55;1.35;;;;;;;12.23;100.00;101338.72;4992139;28;20046;-59
2022/05/12 01:04:58;;;;;;;9.02;1.42;;;;;;;12.15;100.00;101333.09;4992032;28;20138;-60
2022/05/12 01:07:27;;;;;;;9.43;1.90;;;;;;;12.02;100.00;101343.56;4988341;28;20104;-60
2022/05/12 01:09:57;;;;;;;8.45;1.58;;;;;;;12.04;100.00;101338.19;4986549;28;20454;-60
2022/05/12 01:12:25;;;;;;;7.65;1.85;;;;;;;12.08;100.00;101344.97;4988362;28;20234;-60
2022/05/12 01:14:53;;;;;;;6.60;1.13;;;;;;;12.07;100.00;101344.13;4988198;28;20065;-60
2022/05/12 01:17:23;;;;;;;4.97;1.30;;;;;;;12.12;100.00;101349.09;4993155;28;20038;-60
2022/05/12 01:19:52;;;;;;;6.28;1.45;;;;;;;12.11;100.00;101355.34;4992731;28;20060;-59
2022/05/12 01:22:35;;;;;;;7.40;1.70;;;;;;;12.14;100.00;101347.22;4990521;28;20433;-61
2022/05/12 01:25:09;;;;;;;9.35;1.50;;;;;;;12.10;100.00;101356.28;4985864;28;20109;-51
2022/05/12 01:27:39;;;;;;;8.55;1.40;;;;;;;12.02;100.00;101363.81;4987022;28;20058;-59
2022/05/12 01:30:10;;;;;;;11.18;1.58;;;;;;;11.93;100.00;101359.91;4988074;28;20050;-52
2022/05/12 01:32:39;;;;;;;7.43;1.52;;;;;;;12.03;100.00;101366.34;4987116;28;20045;-59
2022/05/12 01:35:08;;;;;;;5.30;1.10;;;;;;;12.03;100.00;101361.09;4986789;28;20054;-60
2022/05/12 01:37:40;;;;;;;8.02;1.70;;;;;;;11.86;100.00;101369.16;4988049;28;20054;-60
2022/05/12 01:40:12;;;;;;;7.65;1.70;;;;;;;11.80;100.00;101373.88;4985690;28;20058;-59
2022/05/12 01:42:41;;;;;;;8.20;1.70;;;;;;;11.79;100.00;101374.81;4988565;28;20498;-60
2022/05/12 01:45:10;;;;;;;7.10;1.40;;;;;;;11.62;100.00;101382.91;4989874;28;20141;-60
2022/05/12 01:47:41;;;;;;;10.38;2.08;;;;;;;11.63;100.00;101384.59;4988378;28;20046;-59
2022/05/12 01:50:10;;;;;;;8.15;1.60;;;;;;;11.70;100.00;101390.34;4987296;28;20047;-60
2022/05/12 01:52:43;;;;;;;6.07;1.92;;;;;;;11.69;100.00;101391.28;4988131;28;20505;-60
2022/05/12 01:55:15;;;;;;;8.25;1.65;;;;;;;11.73;100.00;101391.00;4985903;28;20050;-60
2022/05/12 01:57:43;;;;;;;8.85;1.73;;;;;;;11.72;100.00;101396.38;4987959;28;20042;-60
2022/05/12 02:00:14;;;;;;;5.30;1.58;;;;;;;11.69;100.00;101404.47;4988531;28;20588;-54
2022/05/12 02:02:43;;;;;;;8.30;1.85;;;;;;;11.60;100.00;101401.47;4991420;28;20054;-51
2022/05/12 02:05:12;;;;;;;9.13;1.73;;;;;;;11.52;100.00;101405.47;4987641;28;20185;-51
2022/05/12 02:07:42;;;;;;;5.80;1.40;;;;;;;11.58;100.00;101411.22;4988931;28;20465;-50
2022/05/12 02:10:15;;;;;;;6.72;1.83;;;;;;;11.55;100.00;101407.91;4992525;28;20050;-52
2022/05/12 02:12:43;;;;;;;10.68;2.00;;;;;;;11.48;100.00;101418.00;4992488;28;20050;-54
2022/05/12 02:15:12;;;;;;;5.25;1.60;;;;;;;11.57;100.00;101414.78;4992464;28;20258;-51
2022/05/12 02:17:40;;;;;;;7.88;1.52;;;;;;;11.55;100.00;101415.81;4988164;28;20042;-52
2022/05/12 02:20:11;;;;;;;9.57;2.38;;;;;;;11.49;100.00;101430.22;4987705;28;20108;-50
2022/05/12 02:22:39;;;;;;;6.10;1.60;;;;;;;11.35;100.00;101431.03;4988752;28;20494;-59
2022/05/12 02:25:09;;;;;;;5.63;2.03;;;;;;;11.43;100.00;101433.22;4990670;28;20054;-54
2022/05/12 02:27:42;;;;;;;6.47;1.80;;;;;;;11.36;100.00;101442.41;4988858;28;20552;-51
2022/05/12 02:30:14;;;;;;;5.85;1.75;;;;;;;11.35;100.00;101440.72;4988106;28;20050;-51
2022/05/12 02:32:42;;;;;;;4.60;1.85;;;;;;;11.30;100.00;101443.63;4992337;28;20061;-50
2022/05/12 02:35:11;;;;;;;7.60;1.90;;;;;;;11.24;100.00;101434.28;4992300;28;20046;-52
2022/05/12 02:37:41;;;;;;;7.32;2.17;;;;;;;11.20;100.00;101442.47;4990757;28;20050;-51
2022/05/12 02:40:11;;;;;;;5.05;2.08;;;;;;;11.13;100.00;101447.25;4989443;28;20046;-53
2022/05/12 02:42:41;;;;;;;10.15;2.30;;;;;;;11.09;100.00;101449.19;4992096;28;20429;-52
2022/05/12 02:45:10;;;;;;;9.25;2.00;;;;;;;11.04;100.00;101447.78;4990279;28;20093;-52
2022/05/12 02:47:39;;;;;;;7.75;2.10;;;;;;;10.99;100.00;101456.78;4991372;28;20054;-51
2022/05/12 02:50:08;;;;;;;8.05;2.10;;;;;;;10.98;100.00;101462.13;4991223;28;20053;-51
2022/05/12 02:52:37;;;;;;;5.72;2.20;;;;;;;10.91;100.00;101466.91;4993074;28;20077;-50
2022/05/12 02:55:06;;;;;;;7.93;2.30;;;;;;;10.91;100.00;101464.25;4988650;28;20052;-50
2022/05/12 02:57:36;;;;;;;8.27;2.20;;;;;;;10.86;100.00;101463.66;4990957;28;20039;-50
2022/05/12 03:00:09;;;;;;;9.00;2.67;;;;;;;10.83;100.00;101464.69;4990619;28;20546;-53
2022/05/12 03:02:37;;;;;;;10.65;2.55;;;;;;;10.86;100.00;101462.84;4991209;28;20047;-49
2022/05/12 03:05:06;;;;;;;6.38;2.60;;;;;;;10.86;100.00;101463.66;4990456;28;20125;-60
2022/05/12 03:07:35;;;;;;;6.43;2.47;;;;;;;10.85;100.00;101471.66;4994536;28;20078;-60
2022/05/12 03:10:03;;;;;;;8.35;3.00;;;;;;;10.87;100.00;101481.16;4993170;28;20422;-60
2022/05/12 03:12:32;;;;;;;9.10;3.00;;;;;;;10.83;100.00;101480.47;4990033;28;20046;-59
2022/05/12 03:15:00;;;;;;;8.48;2.33;;;;;;;10.76;100.00;101475.66;4990617;28;20050;-60
2022/05/12 03:17:30;;;;;;;12.60;2.80;;;;;;;10.72;100.00;101474.13;4990876;28;20557;-60
2022/05/12 03:19:58;;;;;;;8.65;2.75;;;;;;;10.62;100.00;101485.16;4990656;28;20112;-58
2022/05/12 03:22:27;;;;;;;11.23;3.40;;;;;;;10.59;100.00;101487.97;4991206;28;20084;-59
2022/05/12 03:24:55;;;;;;;6.85;3.00;;;;;;;10.59;100.00;101481.84;4991602;28;20538;-59
2022/05/12 03:27:23;;;;;;;9.98;3.22;;;;;;;10.52;100.00;101485.75;4988888;28;20054;-59
2022/05/12 03:29:51;;;;;;;7.97;2.85;;;;;;;10.56;100.00;101490.75;4990573;28;20093;-50
2022/05/12 03:32:19;;;;;;;11.02;3.47;;;;;;;10.53;100.00;101493.56;4992182;28;20051;-48
2022/05/12 03:34:49;;;;;;;11.02;2.97;;;;;;;10.51;100.00;101487.50;4994650;28;20050;-50
2022/05/12 03:37:18;;;;;;;10.70;3.40;;;;;;;10.37;100.00;101490.06;4994460;28;20058;-49
2022/05/12 03:39:46;;;;;;;10.40;3.65;;;;;;;10.44;100.00;101500.19;4994497;28;20401;-53
2022/05/12 03:42:15;;;;;;;7.32;3.25;;;;;;;10.46;100.00;101494.81;4994549;28;20046;-59
2022/05/12 03:44:54;;;;;;;8.55;3.25;;;;;;;10.41;100.00;101502.94;4994189;28;20472;-60
2022/05/12 03:47:25;;;;;;;10.15;3.20;;;;;;;10.52;100.00;101497.09;4994305;28;20616;-59
2022/05/12 03:49:57;;;;;;;10.95;3.42;;;;;;;10.51;100.00;101502.47;4992004;28;20081;-51
2022/05/12 03:52:26;;;;;;;10.65;3.80;;;;;;;10.48;100.00;101521.88;4989842;28;20054;-60
2022/05/12 03:54:54;;;;;;;9.57;3.65;;;;;;;10.45;100.00;101516.78;4992501;28;20085;-60
2022/05/12 03:57:23;;;;;;;12.15;4.00;;;;;;;10.46;100.00;101524.59;4990857;28;20535;-60
2022/05/12 03:59:52;;;;;;;12.55;4.25;;;;;;;10.46;100.00;101521.13;4990561;28;20112;-60
2022/05/12 04:02:21;;;;;;;11.18;3.85;;;;;;;10.42;100.00;101524.84;4990382;28;20054;-60
2022/05/12 04:04:50;;;;;;;17.20;5.18;;;;;;;10.44;100.00;101541.38;4990245;28;20057;-60
2022/05/12 04:07:22;;;;;;;12.05;4.50;;;;;;;10.49;100.00;101531.47;4992433;28;20553;-59
2022/05/12 04:09:51;;;;;;;10.57;4.28;;;;;;;10.42;100.00;101540.63;4989061;28;20053;-52
2022/05/12 04:12:19;;;;;;;13.98;4.65;;;;;;;10.44;100.00;101539.63;4989995;28;20108;-53
2022/05/12 04:14:47;;;;;;;11.32;4.70;;;;;;;10.44;100.00;101539.63;4990266;28;20413;-52
2022/05/12 04:17:17;;;;;;;10.70;4.63;;;;;;;10.49;100.00;101545.47;4990317;28;20561;-59
2022/05/12 04:19:45;;;;;;;9.88;4.50;;;;;;;10.49;100.00;101549.88;4988402;28;20057;-58
2022/05/12 04:22:14;;;;;;;10.30;4.75;;;;;;;10.46;100.00;101547.44;4990295;28;20056;-59
2022/05/12 04:24:43;;;;;;;12.65;4.55;;;;;;;10.45;100.00;101558.88;4987515;28;20062;-53
2022/05/12 04:27:12;;;;;;;9.90;4.85;;;;;;;10.46;100.00;101555.31;4989960;28;20141;-59
2022/05/12 04:29:43;;;;;;;10.27;3.90;;;;;;;10.48;100.00;101551.69;4990136;28;20054;-60
2022/05/12 04:32:11;;;;;;;13.95;4.38;;;;;;;10.46;100.00;101553.53;4991972;28;20465;-50
2022/05/12 04:37:28;;;;;;;12.75;4.97;;;;;;;10.57;100.00;101566.09;4989901;28;20532;-53
2022/05/12 04:40:05;;;;;;;11.18;4.43;;;;;;;10.53;100.00;101572.47;4990586;28;20104;-52
2022/05/12 04:42:33;;;;;;;8.85;4.07;;;;;;;10.49;100.00;101574.38;4991496;28;21011;-58
2022/05/12 04:45:02;;;;;;;8.10;3.92;;;;;;;10.44;100.00;101573.81;4988312;28;20046;-58
2022/05/12 04:47:29;;;;;;;9.68;3.97;;;;;;;10.42;100.00;101582.69;4992686;28;20050;-58
2022/05/12 04:49:58;;;;;;;8.10;3.83;;;;;;;10.49;100.00;101576.19;4988855;28;20509;-51
2022/05/12 04:52:27;;;;;;;10.68;3.75;;;;;;;10.50;100.00;101588.41;4989107;28;20510;-52
2022/05/12 04:54:57;;;;;;;8.93;3.90;;;;;;;10.47;100.00;101583.28;4993248;28;20046;-59
2022/05/12 04:57:25;;;;;;;7.75;3.65;;;;;;;10.45;100.00;101593.06;4993092;28;20422;-59
2022/05/12 04:59:56;;;;;;;7.43;3.78;;;;;;;10.48;100.00;101592.88;4993362;28;20120;-60
2022/05/12 05:02:24;;;;;;;9.10;3.42;;;;;;;10.51;100.00;101597.97;4993069;28;20331;-59
2022/05/12 05:04:52;;;;;;;11.48;3.85;;;;;;;10.58;100.00;101587.97;4991122;28;20060;-59
2022/05/12 05:07:22;;;;;;;7.70;3.45;;;;;;;10.63;100.00;101599.97;4988829;28;20514;-59
2022/05/12 05:09:51;;;;;;;10.98;4.30;;;;;;;10.69;100.00;101606.69;4987049;28;20066;-60
2022/05/12 05:12:20;;;;;;;7.90;3.75;;;;;;;10.72;100.00;101608.31;4988829;28;20463;-59
2022/05/12 05:14:49;;;;;;;9.50;4.18;;;;;;;10.77;100.00;101612.38;4992064;28;20573;-59
2022/05/12 05:17:17;;;;;;;12.13;4.22;;;;;;;10.78;100.00;101615.84;4989119;28;20062;-58
2022/05/12 05:19:45;;;;;;;10.63;4.35;;;;;;;10.89;100.00;101615.28;4988584;28;20060;-58
2022/05/12 05:22:13;;;;;;;7.93;3.75;;;;;;;11.01;100.00;101616.41;4989108;28;20113;-59
2022/05/12 05:24:41;;;;;;;10.05;4.07;;;;;;;11.06;100.00;101619.63;4987673;28;20042;-58
2022/05/12 05:27:10;;;;;;;8.75;4.50;;;;;;;11.09;100.00;101627.38;4988642;28;20085;-59
2022/05/12 05:29:41;;;;;;;11.98;4.07;;;;;;;11.15;100.00;101627.00;4988175;28;20054;-60
2022/05/12 05:32:10;;;;;;;9.90;4.10;;;;;;;11.24;100.00;101631.78;4990735;28;20046;-58
2022/05/12 05:34:39;;;;;;;9.35;4.40;;;;;;;11.29;100.00;101629.75;4988312;28;20051;-58
2022/05/12 05:37:07;;;;;;;9.35;4.18;;;;;;;11.39;100.00;101637.97;4988889;28;20082;-59
2022/05/12 05:39:35;;;;;;;10.98;4.50;;;;;;;11.48;100.00;101644.53;4991837;28;20057;-58
2022/05/12 05:42:09;;;;;;;10.40;5.10;;;;;;;11.57;100.00;101646.63;4992495;28;20047;-59
2022/05/12 05:44:37;;;;;;;9.40;4.45;;;;;;;11.68;100.00;101651.28;4991249;28;20081;-59
2022/05/12 05:47:07;;;;;;;11.27;4.90;;;;;;;11.75;100.00;101646.50;4988612;28;20138;-59
2022/05/12 05:49:36;;;;;;;11.57;4.55;;;;;;;11.79;100.00;101659.44;4988203;28;20046;-59
2022/05/12 05:54:52;;;;;;;11.60;4.53;;;;;;;12.00;100.00;101664.44;4992624;28;20049;-58
2022/05/12 05:57:23;;;;;;;14.50;5.90;;;;;;;12.07;100.00;101673.69;4990777;28;20046;-59
2022/05/12 05:59:52;;;;;;;11.82;5.50;;;;;;;12.20;100.00;101672.97;4988682;28;20608;-59
2022/05/12 06:02:22;;;;;;;12.93;4.63;;;;;;;12.27;100.00;101680.44;4988503;28;20077;-59
2022/05/12 06:04:50;;;;;;;12.55;5.18;;;;;;;12.37;100.00;101683.38;4988344;28;20452;-60
2022/05/12 06:07:19;;;;;;;12.07;4.95;;;;;;;12.45;100.00;101688.19;4992591;28;20513;-59
2022/05/12 06:09:47;;;;;;;12.30;5.30;;;;;;;12.56;100.00;101688.38;4988523;28;20054;-59
2022/05/12 06:12:15;;;;;;;13.35;5.15;;;;;;;12.66;100.00;101696.59;4989095;28;20057;-59
2022/05/12 06:14:43;;;;;;;13.13;4.93;;;;;;;12.77;100.00;101698.59;4995383;28;20074;-59
2022/05/12 06:17:11;;;;;;;10.10;4.60;;;;;;;12.87;100.00;101697.09;4996244;28;20108;-60
2022/05/12 06:19:41;;;;;;;9.75;4.80;;;;;;;12.99;100.00;101704.25;4992361;28;20054;-60
2022/05/12 06:22:10;;;;;;;10.15;4.82;;;;;;;13.13;100.00;101705.16;4993456;28;20532;-60
2022/05/12 06:24:38;;;;;;;18.25;5.57;;;;;;;13.23;100.00;101714.22;4995879;28;20054;-60
2022/05/12 06:27:07;;;;;;;11.38;5.03;;;;;;;13.33;100.00;101715.34;4995862;28;20078;-60
2022/05/12 06:29:36;;;;;;;11.30;4.95;;;;;;;13.44;100.00;101716.50;4992578;28;20057;-60
2022/05/12 06:32:06;;;;;;;11.48;5.10;;;;;;;13.57;100.00;101717.41;4992343;28;20097;-52
2022/05/12 06:34:34;;;;;;;10.65;4.85;;;;;;;13.63;100.00;101716.16;4989801;28;20215;-53
2022/05/12 06:37:06;;;;;;;12.00;5.68;;;;;;;13.78;100.00;101722.25;4992155;28;20433;-54
2022/05/12 06:39:34;;;;;;;11.77;4.90;;;;;;;13.85;100.00;101729.69;4991415;28;20524;-53
2022/05/12 06:42:02;;;;;;;13.00;5.45;;;;;;;14.00;100.00;101732.28;4990500;28;20097;-49
2022/05/12 06:44:30;;;;;;;14.50;4.82;;;;;;;14.07;100.00;101728.31;4994014;28;20449;-54
2022/05/12 06:46:58;;;;;;;12.15;4.60;;;;;;;14.19;100.00;101731.91;4990827;28;20046;-54
2022/05/12 06:49:28;;;;;;;11.65;4.70;;;;;;;14.29;97.29;101732.13;4991434;28;20045;-53
2022/05/12 06:51:56;;;;;;;12.85;4.68;;;;;;;14.45;98.04;101734.63;4991816;28;20068;-49
2022/05/12 06:54:25;;;;;;;13.15;4.68;;;;;;;14.59;98.22;101742.47;4990702;28;20104;-52
2022/05/12 06:56:54;;;;;;;12.88;4.80;;;;;;;14.76;96.25;101751.09;4990445;28;20046;-51
2022/05/12 06:59:22;;;;;;;13.25;4.38;;;;;;;14.90;96.54;101743.03;4991291;28;20050;-51
2022/05/12 07:01:50;;;;;;;12.25;4.95;;;;;;;14.99;92.65;101742.41;4993062;28;20058;-51
2022/05/12 07:04:18;;;;;;;10.05;4.82;;;;;;;15.11;93.48;101746.00;4992773;28;20443;-53
2022/05/12 07:06:47;;;;;;;13.18;4.30;;;;;;;15.28;92.67;101747.44;4991260;28;20133;-53
2022/05/12 07:09:18;;;;;;;12.43;4.68;;;;;;;15.32;91.02;101746.28;4994277;28;20050;-53
2022/05/12 07:11:47;;;;;;;12.90;4.40;;;;;;;15.51;90.46;101753.75;4989674;28;20042;-55
2022/05/12 07:14:17;;;;;;;11.02;4.30;;;;;;;15.56;88.95;101761.41;4991406;28;20038;-52
2022/05/12 07:16:46;;;;;;;9.38;4.63;;;;;;;15.75;88.97;101757.41;4993601;28;20399;-55
2022/05/12 07:19:15;;;;;;;9.93;4.50;;;;;;;15.98;88.11;101758.41;4991676;28;20065;-52
2022/05/12 07:27:16;;;;;;;10.35;4.25;;;;;;;16.27;82.29;101763.38;4994791;28;20054;-53
2022/05/12 07:29:45;;;;;;;10.35;4.15;;;;;;;16.38;82.17;101764.25;4994765;28;20054;-52
2022/05/12 07:32:14;;;;;;;11.90;4.03;;;;;;;16.54;81.30;101765.75;4994573;28;20050;-50
2022/05/12 07:34:42;;;;;;;12.68;4.13;;;;;;;16.72;81.01;101772.28;4990720;28;20051;-55
2022/05/12 07:37:10;;;;;;;11.20;3.90;;;;;;;16.95;81.63;101779.50;4991297;28;20096;-54
2022/05/12 07:39:38;;;;;;;11.45;3.80;;;;;;;17.10;79.66;101780.09;4989164;28;20050;-53
2022/05/12 07:42:06;;;;;;;9.63;3.40;;;;;;;17.18;77.50;101778.56;4990542;28;20054;-53
2022/05/12 07:44:37;;;;;;;11.02;4.22;;;;;;;17.31;77.06;101780.25;4983164;28;20050;-55
2022/05/12 07:47:09;;;;;;;9.60;3.95;;;;;;;17.53;78.45;101780.25;4987546;28;20117;-52
2022/05/12 07:49:39;;;;;;;8.55;3.92;;;;;;;17.76;76.99;101774.03;4989481;28;20057;-53
2022/05/12 07:52:10;;;;;;;13.38;4.15;;;;;;;17.89;75.32;101780.88;4984044;28;20137;-52
2022/05/12 07:54:38;;;;;;;8.75;4.07;;;;;;;17.96;74.43;101789.25;4987920;28;20051;-55
2022/05/12 07:57:07;;;;;;;9.05;3.67;;;;;;;18.08;72.18;101782.06;4992754;28;20042;-54
2022/05/12 07:59:44;;;;;;;8.38;3.08;;;;;;;18.14;71.26;101784.22;4989555;28;20138;-55
2022/05/12 08:02:16;;;;;;;11.32;3.47;;;;;;;18.20;72.88;101790.84;4989661;28;20101;-55
2022/05/12 08:04:46;;;;;;;8.65;3.90;;;;;;;18.15;71.22;101790.41;4989488;28;20566;-55
2022/05/12 08:07:15;;;;;;;10.30;3.50;;;;;;;18.33;71.10;101794.19;4989417;28;20528;-53
2022/05/12 08:09:44;;;;;;;9.10;3.30;;;;;;;18.60;68.38;101795.50;4986943;28;20164;-54
2022/05/12 08:12:12;;;;;;;10.05;3.55;;;;;;;18.81;65.33;101797.31;4992891;28;20449;-54
2022/05/12 08:14:40;;;;;;;10.43;3.30;;;;;;;18.88;66.53;101802.03;4988911;28;20056;-55
2022/05/12 08:17:10;;;;;;;11.95;3.45;;;;;;;18.95;64.66;101806.84;4989977;28;20632;-54
2022/05/12 08:19:38;;;;;;;11.05;3.67;;;;;;;18.90;65.16;101807.25;4988376;28;20169;-54
2022/05/12 08:22:07;;;;;;;9.68;3.60;;;;;;;19.02;64.32;101810.66;4989523;28;20068;-55
2022/05/12 08:24:35;;;;;;;10.45;3.05;;;;;;;19.38;62.75;101806.63;4988509;28;20122;-56
2022/05/12 08:27:04;;;;;;;9.68;3.13;;;;;;;19.11;60.21;101814.38;4987790;28;20504;-53
2022/05/12 08:29:32;;;;;;;8.80;2.75;;;;;;;19.53;60.55;101809.75;4991212;28;20054;-54
2022/05/12 08:32:00;;;;;;;7.75;2.63;;;;;;;19.84;62.67;101811.56;4993784;28;20136;-52
2022/05/12 08:34:30;;;;;;;10.32;2.60;;;;;;;19.66;56.59;101812.19;4989751;28;20133;-53
2022/05/12 08:36:58;;;;;;;8.70;2.70;;;;;;;20.06;58.32;101807.81;4988486;28;20058;-54
2022/05/12 08:39:26;;;;;;;8.80;2.53;;;;;;;20.03;57.84;101813.44;4992206;28;20765;-54
2022/05/12 08:42:00;;;;;;;9.52;2.67;;;;;;;20.14;59.25;101813.28;4988075;28;20548;-53
2022/05/12 08:44:36;;;;;;;7.93;2.80;;;;;;;20.39;56.65;101806.53;4991704;28;20180;-54
2022/05/12 08:47:06;;;;;;;7.20;2.60;;;;;;;20.75;54.32;101811.31;4993301;28;20054;-55
2022/05/12 08:49:41;;;;;;;9.68;2.58;;;;;;;20.61;55.44;101807.22;4988591;28;20113;-53
2022/05/12 08:52:16;;;;;;;6.57;2.13;;;;;;;20.41;52.77;101819.75;4988671;28;20050;-55
2022/05/12 08:54:51;;;;;;;8.85;2.70;;;;;;;20.21;52.56;101810.91;4987594;28;20046;-53
2022/05/12 08:57:28;;;;;;;7.55;2.35;;;;;;;20.16;52.59;101816.66;4988611;28;20050;-53
2022/05/12 08:59:58;;;;;;;8.07;2.20;;;;;;;20.35;52.77;101818.50;4988270;28;20054;-53
2022/05/12 09:02:36;;;;;;;8.80;2.65;;;;;;;20.43;52.30;101818.63;4989107;28;20057;-53
2022/05/12 09:05:08;;;;;;;5.97;2.25;;;;;;;20.19;51.38;101813.72;4992767;28;20494;-55
2022/05/12 09:07:44;;;;;;;8.68;2.42;;;;;;;20.31;49.93;101814.41;4989506;28;20082;-53
2022/05/12 09:10:26;;;;;;;10.35;2.40;;;;;;;20.22;51.06;101824.13;4986824;28;20113;-55
2022/05/12 09:13:00;;;;;;;7.35;2.22;;;;;;;20.43;50.19;101825.81;4988218;28;20050;-53
2022/05/12 09:15:32;;;;;;;5.78;2.17;;;;;;;20.75;50.74;101830.88;4989534;28;20050;-53
2022/05/12 09:18:02;;;;;;;4.40;2.00;;;;;;;20.30;49.41;101838.59;4989654;28;20053;-54
2022/05/12 09:20:35;;;;;;;6.13;2.08;;;;;;;20.52;48.55;101837.47;4987056;28;20066;-54
2022/05/12 09:23:05;;;;;;;5.65;1.77;;;;;;;20.96;46.15;101831.69;4991480;28;20054;-55
2022/05/12 09:25:37;;;;;;;6.72;2.50;;;;;;;21.03;47.06;101827.44;4992728;28;20053;-59
2022/05/12 09:28:27;;;;;;;7.05;2.33;;;;;;;21.34;47.06;101830.72;4992151;28;20057;-59
2022/05/12 09:30:56;;;;;;;7.37;2.10;;;;;;;21.83;47.68;101840.34;4988114;28;20465;-60
2022/05/12 09:33:33;;;;;;;6.18;1.80;;;;;;;21.92;44.12;101836.78;4987644;28;20511;-60
2022/05/12 09:36:06;;;;;;;6.90;1.95;;;;;;;21.90;43.95;101841.47;4988843;28;20058;-59
2022/05/12 09:38:41;;;;;;;5.68;1.83;;;;;;;21.60;44.78;101836.25;4992764;28;20445;-59
2022/05/12 09:41:18;;;;;;;7.10;2.42;;;;;;;21.60;43.78;101833.59;4992389;28;20042;-58
2022/05/12 09:43:46;;;;;;;6.72;2.22;;;;;;;21.98;45.52;101828.16;4992789;28;20068;-58
2022/05/12 09:46:29;;;;;;;6.18;2.05;;;;;;;22.16;44.66;101824.66;4991095;28;20050;-59
2022/05/12 09:49:19;;;;;;;6.28;1.83;;;;;;;22.22;42.60;101810.63;4991072;28;20223;-59
2022/05/12 09:51:48;;;;;;;6.90;1.58;;;;;;;22.08;42.37;101828.91;4991480;28;20101;-59
2022/05/12 09:54:23;;;;;;;5.85;1.83;;;;;;;22.36;40.29;101817.31;4990577;28;20058;-59
2022/05/12 09:57:14;;;;;;;4.55;1.55;;;;;;;22.44;42.75;101812.88;4991904;28;20042;-60
2022/05/12 09:59:44;;;;;;;7.88;1.90;;;;;;;22.39;41.62;101815.19;4996523;28;20085;-59
2022/05/12 10:08:16;;;;;;;5.88;1.67;;;;;;;23.13;41.66;101813.03;4991562;28;20092;-60
2022/05/12 10:10:48;;;;;;;6.53;1.58;;;;;;;23.37;39.23;101813.31;4990064;28;20049;-59
2022/05/12 10:13:24;;;;;;;7.75;1.70;;;;;;;23.54;37.57;101814.22;4995950;28;20112;-59
2022/05/12 10:15:55;;;;;;;4.25;1.50;;;;;;;22.89;35.89;101810.16;4993535;28;20105;-59
2022/05/12 10:18:31;;;;;;;3.63;1.20;;;;;;;23.13;37.31;101807.66;4991423;28;20086;-59
2022/05/12 10:21:09;;;;;;;6.20;1.80;;;;;;;23.44;36.59;101815.19;4990849;28;20050;-60
2022/05/12 10:23:48;;;;;;;5.13;1.50;;;;;;;23.68;35.55;101813.59;4994447;28;20058;-60
2022/05/12 10:26:23;;;;;;;4.05;1.13;;;;;;;24.06;36.24;101813.22;4989158;28;20089;-60
2022/05/12 10:28:54;;;;;;;3.70;1.20;;;;;;;24.20;34.44;101819.75;4991725;28;20046;-61
2022/05/12 10:31:29;;;;;;;4.82;1.13;;;;;;;24.46;36.84;101812.41;4990086;28;20091;-59
2022/05/12 10:34:09;;;;;;;4.00;1.33;;;;;;;24.70;34.81;101813.41;4973052;28;20058;-59
2022/05/12 10:36:46;;;;;;;5.78;1.60;;;;;;;24.79;35.02;101819.63;4989671;28;20051;-58
2022/05/12 10:39:26;;;;;;;4.25;1.27;;;;;;;24.77;33.32;101810.88;4989844;28;20050;-60
2022/05/12 10:42:11;;;;;;;6.07;1.45;;;;;;;24.94;33.33;101815.22;4971171;28;20055;-60
2022/05/12 10:45:05;;;;;;;4.25;1.50;;;;;;;24.60;33.29;101818.09;4983803;28;20046;-59
2022/05/12 10:47:51;;;;;;;3.90;1.27;;;;;;;24.95;32.89;101814.22;4990169;28;20068;-59
2022/05/12 10:50:25;;;;;;;2.78;0.80;;;;;;;24.59;30.45;101824.47;4989568;28;20094;-58
2022/05/12 10:53:03;;;;;;;4.88;1.00;;;;;;;24.77;32.80;101825.19;4977429;28;20051;-59
2022/05/12 10:55:43;;;;;;;4.85;1.10;;;;;;;24.77;32.29;101819.81;4990250;28;20517;-58
2022/05/12 10:58:26;;;;;;;3.03;1.13;;;;;;;24.28;32.23;101815.25;4992322;28;20050;-59
2022/05/12 11:01:09;;;;;;;6.28;1.10;;;;;;;24.54;31.71;101816.94;4991721;28;20066;-60
2022/05/12 11:03:44;;;;;;;3.95;0.90;;;;;;;24.46;31.87;101798.13;4990722;28;20050;-59
2022/05/12 11:06:16;;;;;;;4.93;1.10;;;;;;;24.89;33.36;101812.19;4991809;28;20054;-59
2022/05/12 11:08:49;;;;;;;4.18;1.00;;;;;;;25.02;31.83;101808.97;4994549;28;20058;-58
2022/05/12 11:11:20;;;;;;;;;;;;;;;24.99;30.16;101817.38;4994893;28;20058;-59
2022/05/12 11:13:53;;;;;;;3.10;1.25;;;;;;;25.08;31.04;101808.28;4990581;28;19980;-59
2022/05/12 11:16:26;;;;;;;3.40;1.10;;;;;;;25.21;30.94;101807.75;4992776;28;20046;-59
2022/05/12 11:18:58;;;;;;;;;;;;;;;25.24;30.79;101804.69;4994113;28;20062;-59
2022/05/12 11:21:29;;;;;;;5.95;1.30;;;;;;;25.12;30.09;101796.16;4994393;28;19925;-59
2022/05/12 11:24:13;;;;;;;4.82;1.15;;;;;;;25.37;31.03;101809.53;4990945;28;20065;-59
2022/05/12 11:26:53;;;;;;;6.60;1.50;;;;;;;25.61;29.79;101802.38;4986467;28;20046;-59
2022/05/12 11:29:48;;;;;;;4.65;1.13;;;;;;;25.55;30.51;101812.00;4985202;28;20054;-59
2022/05/12 11:32:30;;;;;;;4.85;1.40;;;;;;;25.64;28.89;101810.94;4976769;28;20474;-59
2022/05/12 11:35:04;;;;;;;6.87;1.20;;;;;;;25.31;29.40;101796.78;4985958;28;21386;-59
2022/05/12 11:37:36;;;;;;;4.90;1.35;;;;;;;25.16;30.68;101801.22;4992210;28;20062;-60
2022/05/12 11:40:08;;;;;;;5.47;1.40;;;;;;;24.95;30.80;101797.22;4988782;28;20532;-60
2022/05/12 11:45:49;;;;;;;3.80;1.33;;;;;;;24.74;31.57;101803.97;4993088;28;20118;-59
2022/05/12 11:48:36;;;;;;;2.30;1.10;;;;;;;24.94;30.93;101803.63;4989827;28;20524;-59
2022/05/12 11:51:29;;;;;;;3.20;1.13;;;;;;;25.06;30.90;101809.47;4990460;28;20125;-60
2022/05/12 11:54:01;;;;;;;2.97;1.08;;;;;;;25.48;30.48;101797.56;4989814;28;20049;-59
2022/05/12 11:56:49;;;;;;;4.25;1.20;;;;;;;24.66;29.39;101803.16;4987698;28;20580;-59